createdAt,value
2022-12-11T00:01:37.177Z,25.33
2022-12-11T00:04:03.672Z,24.90
2022-12-11T00:06:30.271Z,23.15
2022-12-11T00:08:56.707Z,22.08
2022-12-11T00:11:23.682Z,26.67
2022-12-11T00:13:50.288Z,24.75
2022-12-11T00:16:16.727Z,25.43
2022-12-11T00:18:43.276Z,23.67
2022-12-11T00:21:13.128Z,25.23
2022-12-11T00:23:40.222Z,24.20
2022-12-11T00:26:13.822Z,24.52
2022-12-11T00:28:40.272Z,25.63
2022-12-11T00:31:08.448Z,25.42
2022-12-11T00:33:34.879Z,27.38
2022-12-11T00:36:01.360Z,23.85
2022-12-11T00:38:28.103Z,23.83
2022-12-11T00:40:58.619Z,24.40
2022-12-11T00:43:25.100Z,23.63
2022-12-11T00:45:51.463Z,22.60
2022-12-11T00:48:18.551Z,22.58
2022-12-11T00:50:44.957Z,23.55
2022-12-11T00:53:11.331Z,27.10
2022-12-11T00:55:39.896Z,22.13
2022-12-11T00:58:06.927Z,20.88
2022-12-11T01:00:34.065Z,22.45
2022-12-11T01:03:00.877Z,26.52
2022-12-11T01:05:27.437Z,23.67
2022-12-11T01:07:54.160Z,22.73
2022-12-11T01:10:20.963Z,23.27
2022-12-11T01:12:47.378Z,24.77
2022-12-11T01:15:13.901Z,23.38
2022-12-11T01:17:40.494Z,23.35
2022-12-11T01:20:07.304Z,23.45
2022-12-11T01:22:33.678Z,23.25
2022-12-11T01:25:00.088Z,26.70
2022-12-11T01:27:26.456Z,24.58
2022-12-11T01:29:53.036Z,26.13
2022-12-11T01:32:19.504Z,27.40
2022-12-11T01:34:45.839Z,25.65
2022-12-11T01:37:12.319Z,27.10
2022-12-11T01:39:38.750Z,26.02
2022-12-11T01:42:05.608Z,26.07
2022-12-11T01:44:31.877Z,23.58
2022-12-11T01:46:58.367Z,25.33
2022-12-11T01:49:27.290Z,26.15
2022-12-11T01:52:03.385Z,23.60
2022-12-11T01:54:30.368Z,24.13
2022-12-11T01:57:00.898Z,22.52
2022-12-11T01:59:32.243Z,23.77
2022-12-11T02:02:06.930Z,24.80
2022-12-11T02:04:37.360Z,26.95
2022-12-11T02:07:03.883Z,21.90
2022-12-11T02:09:35.562Z,23.77
2022-12-11T02:12:34.259Z,22.02
2022-12-11T02:15:12.238Z,22.33
2022-12-11T02:17:48.367Z,23.98
2022-12-11T02:20:27.564Z,23.10
2022-12-11T02:23:09.256Z,22.38
2022-12-11T02:25:53.609Z,21.40
2022-12-11T02:28:33.453Z,21.55
2022-12-11T02:31:07.239Z,24.13
2022-12-11T02:33:44.585Z,21.40
2022-12-11T02:36:14.003Z,20.58
2022-12-11T02:38:43.504Z,21.50
2022-12-11T02:41:11.778Z,22.08
2022-12-11T02:43:39.248Z,21.52
2022-12-11T02:46:08.098Z,20.90
2022-12-11T02:48:36.495Z,22.80
2022-12-11T02:51:05.419Z,21.48
2022-12-11T02:53:34.884Z,22.80
2022-12-11T02:56:10.982Z,23.00
2022-12-11T02:58:44.809Z,21.40
2022-12-11T03:01:11.468Z,20.23
2022-12-11T03:03:37.993Z,20.08
2022-12-11T03:06:04.569Z,20.42
2022-12-11T03:08:31.929Z,18.42
2022-12-11T03:10:58.448Z,19.60
2022-12-11T03:13:25.003Z,16.38
2022-12-11T03:16:08.101Z,16.48
2022-12-11T03:18:42.752Z,17.88
2022-12-11T03:21:24.554Z,17.02
2022-12-11T03:24:02.880Z,17.07
2022-12-11T03:26:33.112Z,16.30
2022-12-11T03:29:15.709Z,16.70
2022-12-11T03:31:59.387Z,18.75
2022-12-11T03:34:34.311Z,16.40
2022-12-11T03:37:02.154Z,16.98
2022-12-11T03:39:35.798Z,17.30
2022-12-11T03:42:05.766Z,16.20
2022-12-11T03:44:35.925Z,17.15
2022-12-11T03:47:06.803Z,17.65
2022-12-11T03:49:43.419Z,15.83
2022-12-11T03:52:12.772Z,17.95
2022-12-11T03:54:41.777Z,15.50
2022-12-11T03:57:12.174Z,14.95
2022-12-11T03:59:38.561Z,15.20
2022-12-11T04:02:04.994Z,13.75
2022-12-11T04:04:31.483Z,14.45
2022-12-11T04:06:57.876Z,15.20
2022-12-11T04:09:24.359Z,14.52
2022-12-11T04:11:50.788Z,14.27
2022-12-11T04:14:18.146Z,15.07
2022-12-11T04:16:44.544Z,13.73
2022-12-11T04:19:10.936Z,13.38
2022-12-11T04:21:39.640Z,14.30
2022-12-11T04:24:07.183Z,14.20
2022-12-11T04:26:33.533Z,15.27
2022-12-11T04:28:59.871Z,12.85
2022-12-11T04:31:26.376Z,14.40
2022-12-11T04:33:52.759Z,13.02
2022-12-11T04:36:19.205Z,13.85
2022-12-11T04:38:45.634Z,12.50
2022-12-11T04:41:14.303Z,12.32
2022-12-11T04:43:41.268Z,13.52
2022-12-11T04:46:12.269Z,10.88
2022-12-11T04:48:39.781Z,11.73
2022-12-11T04:51:07.492Z,11.87
2022-12-11T04:53:34.164Z,12.43
2022-12-11T04:56:00.871Z,11.85
2022-12-11T04:58:27.787Z,11.80
2022-12-11T05:00:54.226Z,13.02
2022-12-11T05:03:20.767Z,13.40
2022-12-11T05:05:49.155Z,13.63
2022-12-11T05:08:15.582Z,13.35
2022-12-11T05:10:47.089Z,14.52
2022-12-11T05:13:16.321Z,13.73
2022-12-11T05:15:42.746Z,14.70
2022-12-11T05:18:09.116Z,13.40
2022-12-11T05:20:35.435Z,13.90
2022-12-11T05:23:01.852Z,16.00
2022-12-11T05:25:28.221Z,16.10
2022-12-11T05:27:54.646Z,14.88
2022-12-11T05:30:22.027Z,15.50
2022-12-11T05:32:48.422Z,13.98
2022-12-11T05:35:14.915Z,13.23
2022-12-11T05:37:41.351Z,14.15
2022-12-11T05:40:08.443Z,15.80
2022-12-11T05:42:35.121Z,15.32
2022-12-11T05:45:01.500Z,16.35
2022-12-11T05:47:27.885Z,15.60
2022-12-11T05:49:54.294Z,14.98
2022-12-11T05:52:20.712Z,14.63
2022-12-11T05:54:49.873Z,15.80
2022-12-11T05:57:16.938Z,15.90
2022-12-11T05:59:43.418Z,16.98
2022-12-11T06:02:09.965Z,16.58
2022-12-11T06:04:36.527Z,16.13
2022-12-11T06:07:02.906Z,17.50
2022-12-11T06:09:29.328Z,16.08
2022-12-11T06:11:55.848Z,16.02
2022-12-11T06:14:22.176Z,18.80
2022-12-11T06:16:48.492Z,16.70
2022-12-11T06:19:15.764Z,16.02
2022-12-11T06:21:42.166Z,16.27
2022-12-11T06:24:11.288Z,16.33
2022-12-11T06:26:37.786Z,16.58
2022-12-11T06:29:07.652Z,16.52
2022-12-11T06:31:37.297Z,17.80
2022-12-11T06:34:03.603Z,17.00
2022-12-11T06:36:29.944Z,17.27
2022-12-11T06:38:56.459Z,16.60
2022-12-11T06:41:26.032Z,18.60
2022-12-11T06:43:52.481Z,16.35
2022-12-11T06:46:20.248Z,15.75
2022-12-11T06:48:47.719Z,15.88
2022-12-11T06:51:16.944Z,15.93
2022-12-11T06:53:43.560Z,19.30
2022-12-11T06:56:12.856Z,15.30
2022-12-11T06:58:40.166Z,15.07
2022-12-11T07:01:20.983Z,15.90
2022-12-11T07:03:47.583Z,14.88
2022-12-11T07:06:14.729Z,15.77
2022-12-11T07:08:41.650Z,14.32
2022-12-11T07:11:11.173Z,15.50
2022-12-11T07:13:37.511Z,17.52
2022-12-11T07:16:04.999Z,15.98
2022-12-11T07:18:31.535Z,16.33
2022-12-11T07:20:58.963Z,16.42
2022-12-11T07:23:25.511Z,14.68
2022-12-11T07:25:51.919Z,18.10
2022-12-11T07:28:18.252Z,15.23
2022-12-11T07:30:44.641Z,17.45
2022-12-11T07:33:11.101Z,17.45
2022-12-11T07:35:37.582Z,16.65
2022-12-11T07:38:04.105Z,20.13
2022-12-11T07:40:30.750Z,16.33
2022-12-11T07:42:57.260Z,15.77
2022-12-11T07:45:23.702Z,16.55
2022-12-11T07:47:50.069Z,15.98
2022-12-11T07:50:16.585Z,16.42
2022-12-11T07:52:42.958Z,17.02
2022-12-11T07:55:09.992Z,14.87
2022-12-11T07:57:36.970Z,15.45
2022-12-11T08:00:04.865Z,18.63
2022-12-11T08:02:35.569Z,17.15
2022-12-11T08:05:04.035Z,17.95
2022-12-11T08:07:30.380Z,18.30
2022-12-11T08:09:56.756Z,16.30
2022-12-11T08:12:23.071Z,16.92
2022-12-11T08:14:49.469Z,18.80
2022-12-11T08:17:15.846Z,17.40
2022-12-11T08:19:42.289Z,14.70
2022-12-11T08:22:08.742Z,15.13
2022-12-11T08:24:35.173Z,14.88
2022-12-11T08:27:01.608Z,14.45
2022-12-11T08:29:28.049Z,15.10
2022-12-11T08:31:54.400Z,16.08
2022-12-11T08:34:20.777Z,15.82
2022-12-11T08:36:47.159Z,13.60
2022-12-11T08:39:13.550Z,15.05
2022-12-11T08:41:39.925Z,14.25
2022-12-11T08:44:16.369Z,15.63
2022-12-11T08:46:44.322Z,14.27
2022-12-11T08:49:10.645Z,14.00
2022-12-11T08:51:37.046Z,15.18
2022-12-11T08:54:03.534Z,14.63
2022-12-11T08:56:30.132Z,17.57
2022-12-11T08:59:00.178Z,14.30
2022-12-11T09:01:27.544Z,14.05
2022-12-11T09:03:55.904Z,15.55
2022-12-11T09:06:25.104Z,14.93
2022-12-11T09:08:53.411Z,15.23
2022-12-11T09:11:26.372Z,17.33
2022-12-11T09:13:53.303Z,15.65
2022-12-11T09:16:22.534Z,17.40
2022-12-11T09:18:51.758Z,15.55
2022-12-11T09:21:20.444Z,15.30
2022-12-11T09:23:47.026Z,13.52
2022-12-11T09:26:15.875Z,14.65
2022-12-11T09:28:46.688Z,14.95
2022-12-11T09:31:15.021Z,12.88
2022-12-11T09:33:41.543Z,14.83
2022-12-11T09:36:08.819Z,13.98
2022-12-11T09:38:35.804Z,13.65
2022-12-11T09:41:16.129Z,13.85
2022-12-11T09:43:49.451Z,13.82
2022-12-11T09:46:17.825Z,14.52
2022-12-11T09:48:49.099Z,14.10
2022-12-11T09:51:27.814Z,16.88
2022-12-11T09:53:59.775Z,16.23
2022-12-11T09:56:52.115Z,14.68
2022-12-11T09:59:41.899Z,15.87
2022-12-11T10:02:20.562Z,14.73
2022-12-11T10:05:12.761Z,15.07
2022-12-11T10:07:52.211Z,16.02
2022-12-11T10:10:46.207Z,12.93
2022-12-11T10:13:27.384Z,15.63
2022-12-11T10:16:00.320Z,15.25
2022-12-11T10:18:29.538Z,15.95
2022-12-11T10:20:56.431Z,17.73
2022-12-11T10:23:31.894Z,16.60
2022-12-11T10:26:15.485Z,17.25
2022-12-11T10:28:42.183Z,16.48
2022-12-11T10:31:24.220Z,16.85
2022-12-11T10:34:02.580Z,15.95
2022-12-11T10:36:40.893Z,16.52
2022-12-11T10:39:17.556Z,15.07
2022-12-11T10:41:46.921Z,16.45
2022-12-11T10:44:23.484Z,15.40
2022-12-11T10:47:02.396Z,15.10
2022-12-11T10:49:31.741Z,16.25
2022-12-11T10:51:59.083Z,15.73
2022-12-11T10:54:36.473Z,15.60
2022-12-11T10:57:04.586Z,16.13
2022-12-11T10:59:42.946Z,14.85
2022-12-11T11:02:31.465Z,15.95
2022-12-11T11:05:00.841Z,15.07
2022-12-11T11:07:30.324Z,14.38
2022-12-11T11:10:11.773Z,16.60
2022-12-11T11:12:39.283Z,17.90
2022-12-11T11:15:16.196Z,15.98
2022-12-11T11:17:55.464Z,15.20
2022-12-11T11:20:26.543Z,15.55
2022-12-11T11:23:11.139Z,16.40
2022-12-11T11:25:37.552Z,15.27
2022-12-11T11:28:06.775Z,15.73
2022-12-11T11:30:39.388Z,16.05
2022-12-11T11:33:15.703Z,15.23
2022-12-11T11:35:58.930Z,15.07
2022-12-11T11:38:29.650Z,14.75
2022-12-11T11:41:04.857Z,14.95
2022-12-11T11:43:43.039Z,15.27
2022-12-11T11:46:19.099Z,13.98
2022-12-11T11:48:53.941Z,16.77
2022-12-11T11:51:23.153Z,16.08
2022-12-11T11:53:53.514Z,17.05
2022-12-11T11:56:32.842Z,14.33
2022-12-11T11:59:25.105Z,14.40
2022-12-11T12:01:55.410Z,14.65
2022-12-11T12:04:22.603Z,12.77
2022-12-11T12:07:07.427Z,13.68
2022-12-11T12:09:36.702Z,13.05
2022-12-11T12:12:18.161Z,14.55
2022-12-11T12:14:52.664Z,13.95
2022-12-11T12:17:37.610Z,14.63
2022-12-11T12:20:18.763Z,13.50
2022-12-11T12:22:54.359Z,14.30
2022-12-11T12:25:40.706Z,12.20
2022-12-11T12:28:26.597Z,13.50
2022-12-11T12:31:07.713Z,15.18
2022-12-11T12:34:10.924Z,13.90
2022-12-11T12:36:59.406Z,13.43
2022-12-11T12:39:53.309Z,13.98
2022-12-11T12:42:30.028Z,14.95
2022-12-11T12:45:14.634Z,13.80
2022-12-11T12:47:46.713Z,14.55
2022-12-11T12:50:20.171Z,14.50
2022-12-11T12:52:47.992Z,12.93
2022-12-11T12:55:28.223Z,15.25
2022-12-11T12:57:57.288Z,14.15
2022-12-11T13:00:32.426Z,14.40
2022-12-11T13:03:02.362Z,12.93
2022-12-11T13:05:34.294Z,14.10
2022-12-11T13:08:05.088Z,13.95
2022-12-11T13:10:37.082Z,15.75
2022-12-11T13:13:05.427Z,13.60
2022-12-11T13:15:37.817Z,13.40
2022-12-11T13:18:26.983Z,13.35
2022-12-11T13:20:53.402Z,13.65
2022-12-11T13:23:28.637Z,13.75
2022-12-11T13:26:04.090Z,13.23
2022-12-11T13:28:34.044Z,13.13
2022-12-11T13:31:15.336Z,13.27
2022-12-11T13:33:50.833Z,14.10
2022-12-11T13:36:24.924Z,16.17
2022-12-11T13:39:20.484Z,15.13
2022-12-11T13:41:51.847Z,15.10
2022-12-11T13:44:28.043Z,13.77
2022-12-11T13:46:58.004Z,15.07
2022-12-11T13:49:35.852Z,15.55
2022-12-11T13:52:02.341Z,15.52
2022-12-11T13:54:31.388Z,14.93
2022-12-11T13:57:06.557Z,14.57
2022-12-11T13:59:34.303Z,15.00
2022-12-11T14:02:09.952Z,14.07
2022-12-11T14:04:37.767Z,16.05
2022-12-11T14:07:08.822Z,16.35
2022-12-11T14:09:39.677Z,14.88
2022-12-11T14:12:06.310Z,14.27
2022-12-11T14:14:43.308Z,16.73
2022-12-11T14:17:14.313Z,15.75
2022-12-11T14:19:47.544Z,16.10
2022-12-11T14:22:23.403Z,14.35
2022-12-11T14:24:55.749Z,16.38
2022-12-11T14:27:23.203Z,17.58
2022-12-11T14:29:50.171Z,15.13
2022-12-11T14:32:34.856Z,17.77
2022-12-11T14:35:05.555Z,16.75
2022-12-11T14:37:34.410Z,16.15
2022-12-11T14:40:05.407Z,15.48
2022-12-11T14:42:46.404Z,15.93
2022-12-11T14:45:15.458Z,17.47
2022-12-11T14:47:43.458Z,13.50
2022-12-11T14:50:25.934Z,15.18
2022-12-11T14:52:56.918Z,15.27
2022-12-11T14:55:23.659Z,15.98
2022-12-11T14:57:56.244Z,15.03
2022-12-11T15:00:26.558Z,15.70
2022-12-11T15:03:02.930Z,15.38
2022-12-11T15:05:29.845Z,15.70
2022-12-11T15:08:18.148Z,15.38
2022-12-11T15:11:11.112Z,16.63
2022-12-11T15:13:47.723Z,16.10
2022-12-11T15:16:15.091Z,15.10
2022-12-11T15:18:42.627Z,16.67
2022-12-11T15:21:11.941Z,15.30
2022-12-11T15:23:51.947Z,18.20
2022-12-11T15:26:20.564Z,15.43
2022-12-11T15:28:47.256Z,15.63
2022-12-11T15:31:29.114Z,15.30
2022-12-11T15:33:56.291Z,15.07
2022-12-11T15:36:36.665Z,17.27
2022-12-11T15:39:04.799Z,16.38
2022-12-11T15:41:31.201Z,16.15
2022-12-11T15:43:59.189Z,16.77
2022-12-11T15:46:26.354Z,15.57
2022-12-11T15:48:53.178Z,17.47
2022-12-11T15:51:19.643Z,16.10
2022-12-11T15:53:46.007Z,15.40
2022-12-11T15:56:16.353Z,15.70
2022-12-11T15:58:45.447Z,15.65
2022-12-11T16:01:11.880Z,15.60
2022-12-11T16:03:38.458Z,16.33
2022-12-11T16:06:05.019Z,16.05
2022-12-11T16:08:31.498Z,15.73
2022-12-11T16:10:57.933Z,15.18
2022-12-11T16:13:24.414Z,16.27
2022-12-11T16:15:51.350Z,15.38
2022-12-11T16:18:23.126Z,14.43
2022-12-11T16:20:50.615Z,14.95
2022-12-11T16:23:18.027Z,15.63
2022-12-11T16:25:46.483Z,15.25
2022-12-11T16:28:15.219Z,14.27
2022-12-11T16:30:42.194Z,15.07
2022-12-11T16:33:12.817Z,15.98
2022-12-11T16:35:39.979Z,15.60
2022-12-11T16:38:06.435Z,15.70
2022-12-11T16:40:32.850Z,15.35
2022-12-11T16:42:59.287Z,15.50
2022-12-11T16:45:26.803Z,13.35
2022-12-11T16:47:53.525Z,14.70
2022-12-11T16:50:20.153Z,16.30
2022-12-11T16:52:46.608Z,15.30
2022-12-11T16:55:13.710Z,16.10
2022-12-11T16:57:41.601Z,16.63
2022-12-11T17:00:10.494Z,15.55
2022-12-11T17:02:36.947Z,15.27
2022-12-11T17:05:04.150Z,15.70
2022-12-11T17:07:33.802Z,15.50
2022-12-11T17:10:00.460Z,16.08
2022-12-11T17:12:28.896Z,15.90
2022-12-11T17:14:56.389Z,14.98
2022-12-11T17:17:22.796Z,16.65
2022-12-11T17:19:49.178Z,15.55
2022-12-11T17:22:15.608Z,14.95
2022-12-11T17:24:42.005Z,15.07
2022-12-11T17:27:08.427Z,15.57
2022-12-11T17:29:34.795Z,15.20
2022-12-11T17:32:01.311Z,14.52
2022-12-11T17:34:29.870Z,12.52
2022-12-11T17:36:59.608Z,15.15
2022-12-11T17:39:26.146Z,14.60
2022-12-11T17:41:52.685Z,14.05
2022-12-11T17:44:19.115Z,14.15
2022-12-11T17:46:45.500Z,13.77
2022-12-11T17:49:11.899Z,12.88
2022-12-11T17:51:38.378Z,13.17
2022-12-11T17:54:04.829Z,12.70
2022-12-11T17:56:31.241Z,12.13
2022-12-11T17:58:58.024Z,13.52
2022-12-11T18:01:24.486Z,13.23
2022-12-11T18:03:50.975Z,14.18
2022-12-11T18:06:17.574Z,13.00
2022-12-11T18:08:44.639Z,14.35
2022-12-11T18:11:16.528Z,13.60
2022-12-11T18:13:44.140Z,14.90
2022-12-11T18:16:28.332Z,14.40
2022-12-11T18:18:54.941Z,13.30
2022-12-11T18:21:27.942Z,14.48
2022-12-11T18:23:54.854Z,14.23
2022-12-11T18:26:22.071Z,13.82
2022-12-11T18:28:49.644Z,14.18
2022-12-11T18:31:16.750Z,14.23
2022-12-11T18:33:44.668Z,14.95
2022-12-11T18:36:13.535Z,14.48
2022-12-11T18:38:40.939Z,15.07
2022-12-11T18:41:09.371Z,13.60
2022-12-11T18:43:36.400Z,15.00
2022-12-11T18:46:07.260Z,14.05
2022-12-11T18:48:34.054Z,14.40
2022-12-11T18:51:00.628Z,13.77
2022-12-11T18:53:27.237Z,13.70
2022-12-11T18:56:00.031Z,12.82
2022-12-11T18:58:27.000Z,13.38
2022-12-11T19:00:53.481Z,14.40
2022-12-11T19:03:19.954Z,13.73
2022-12-11T19:05:46.432Z,14.50
2022-12-11T19:08:13.314Z,14.38
2022-12-11T19:10:45.472Z,13.65
2022-12-11T19:13:12.504Z,13.43
2022-12-11T19:15:41.227Z,14.25
2022-12-11T19:18:09.977Z,13.48
2022-12-11T19:20:49.199Z,14.35
2022-12-11T19:23:16.435Z,14.05
2022-12-11T19:25:45.416Z,12.65
2022-12-11T19:28:12.432Z,12.05
2022-12-11T19:30:46.870Z,14.52
2022-12-11T19:33:13.665Z,15.20
2022-12-11T19:35:40.649Z,15.00
2022-12-11T19:38:07.271Z,14.52
2022-12-11T19:40:38.288Z,12.45
2022-12-11T19:43:04.732Z,12.68
2022-12-11T19:45:31.066Z,13.20
2022-12-11T19:47:57.501Z,13.20
2022-12-11T19:50:23.798Z,13.38
2022-12-11T19:52:50.145Z,12.70
2022-12-11T19:55:16.500Z,12.95
2022-12-11T19:57:42.977Z,13.73
2022-12-11T20:00:09.786Z,14.80
2022-12-11T20:02:36.207Z,13.98
2022-12-11T20:05:03.129Z,13.35
2022-12-11T20:07:30.818Z,12.30
2022-12-11T20:09:57.468Z,12.05
2022-12-11T20:12:23.918Z,11.35
2022-12-11T20:14:50.284Z,13.60
2022-12-11T20:17:16.732Z,14.02
2022-12-11T20:19:43.324Z,12.15
2022-12-11T20:22:10.251Z,12.57
2022-12-11T20:24:36.938Z,13.90
2022-12-11T20:27:03.460Z,13.75
2022-12-11T20:29:29.934Z,14.23
2022-12-11T20:31:56.456Z,12.90
2022-12-11T20:34:22.998Z,12.55
2022-12-11T20:36:51.914Z,13.15
2022-12-11T20:39:18.290Z,12.02
2022-12-11T20:41:44.666Z,13.35
2022-12-11T20:44:11.026Z,12.23
2022-12-11T20:46:37.405Z,12.75
2022-12-11T20:49:03.885Z,11.35
2022-12-11T20:51:30.408Z,11.35
2022-12-11T20:53:56.912Z,12.77
2022-12-11T20:56:23.715Z,12.17
2022-12-11T20:58:50.198Z,11.90
2022-12-11T21:01:18.990Z,11.57
2022-12-11T21:03:45.709Z,12.93
2022-12-11T21:06:33.274Z,12.75
2022-12-11T21:09:09.445Z,12.48
2022-12-11T21:11:35.829Z,12.60
2022-12-11T21:14:02.591Z,12.25
2022-12-11T21:16:29.347Z,12.75
2022-12-11T21:18:56.698Z,10.27
2022-12-11T21:21:23.714Z,10.73
2022-12-11T21:23:50.282Z,13.18
2022-12-11T21:26:17.087Z,13.00
2022-12-11T21:28:44.345Z,11.77
2022-12-11T21:31:14.292Z,13.27
2022-12-11T21:33:40.864Z,12.05
2022-12-11T21:36:07.947Z,10.90
2022-12-11T21:38:34.801Z,12.40
2022-12-11T21:41:34.669Z,11.90
2022-12-11T21:46:47.479Z,12.27
2022-12-11T21:49:14.162Z,12.50
2022-12-11T21:51:46.808Z,11.02
2022-12-11T21:54:18.543Z,12.13
2022-12-11T21:56:45.889Z,10.95
2022-12-11T21:59:12.860Z,10.98
2022-12-11T22:01:44.582Z,10.90
2022-12-11T22:04:11.857Z,10.93
2022-12-11T22:06:39.287Z,11.35
2022-12-11T22:09:05.800Z,11.82
2022-12-11T22:11:34.688Z,11.27
2022-12-11T22:14:01.802Z,11.93
2022-12-11T22:16:29.581Z,10.93
2022-12-11T22:18:55.901Z,11.38
2022-12-11T22:21:22.238Z,10.63
2022-12-11T22:23:48.678Z,13.23
2022-12-11T22:26:21.476Z,11.57
2022-12-11T22:28:48.406Z,10.45
2022-12-11T22:31:16.725Z,11.52
2022-12-11T22:33:43.282Z,11.23
2022-12-11T22:36:10.066Z,11.52
2022-12-11T22:38:36.792Z,12.55
2022-12-11T22:41:25.636Z,9.80
2022-12-11T22:43:52.728Z,10.05
2022-12-11T22:46:22.583Z,10.07
2022-12-11T22:48:49.802Z,10.37
2022-12-11T22:51:16.561Z,10.77
2022-12-11T22:53:43.021Z,11.77
2022-12-11T22:56:14.006Z,12.90
2022-12-11T22:58:40.722Z,11.02
2022-12-11T23:01:20.486Z,12.37
2022-12-11T23:03:48.137Z,11.25
2022-12-11T23:06:17.913Z,10.38
2022-12-11T23:08:45.138Z,9.75
2022-12-11T23:11:24.099Z,10.35
2022-12-11T23:13:50.708Z,10.90
2022-12-11T23:16:17.271Z,9.93
2022-12-11T23:18:43.734Z,10.55
2022-12-11T23:21:11.531Z,10.90
2022-12-11T23:23:38.320Z,10.68
2022-12-11T23:26:06.751Z,10.70
2022-12-11T23:28:33.187Z,10.27
2022-12-11T23:30:59.695Z,11.05
2022-12-11T23:33:26.181Z,10.00
2022-12-11T23:35:52.515Z,10.00
2022-12-11T23:38:18.905Z,10.40
2022-12-11T23:40:45.320Z,10.98
2022-12-11T23:43:11.829Z,10.52
2022-12-11T23:45:38.262Z,10.02
2022-12-11T23:48:04.597Z,10.30
2022-12-11T23:50:30.930Z,10.73
2022-12-11T23:52:57.425Z,11.02
2022-12-11T23:55:23.744Z,9.55
2022-12-11T23:57:50.038Z,9.23
